WZZ4118 UGKO-LFOB
Flight info
| Callsign | WZZ4118 |
|---|---|
| Flight time | 4h 48m |
| Altitude | 32000 |
| Route | KUSSA DCT IZERO UL21 ATCEF UM10 OLUPO DCT CRM UL746 EVGEG/N0438F340 UL746 ODERO DCT ZULOC DCT DEGET DCT OSLEN DCT PUSTA DCT ARSIN DCT TAGAS DCT RENKA L610 MAMOR DCT PETIX DCT BOMBI DCT RUDUS DCT OBIGA DCT NOSPA DCT BITBU DCT DIK UN857 TOLVU/N0438F350 DCT RAPOR DCT VEDUS |
| Aircraft | A21N/M-SDE1E2E3FGIJ1J4RWXY/LB1 |
Departure
| Time | 2026-04-27 17:42 |
|---|---|
| Airport | David the Builder Kutaisi International Airport (UGKO) |
Arrival
| Time | 2026-04-27 22:30 |
|---|---|
| Airport | Beauvais-Tillé airport (LFOB) |
| Time | Latitude | Longitude | Altitude | Speed | Heading |
|---|---|---|---|---|---|
| 2026-04-27 16:54 | 42.18106 | 42.46663 | 146 ft | 0 kts | 69° |
| 2026-04-27 16:58 | 42.18106 | 42.46662 | 146 ft | 0 kts | 69° |
| 2026-04-27 17:06 | 42.18106 | 42.46661 | 146 ft | 0 kts | 69° |
| 2026-04-27 17:14 | 42.18106 | 42.46660 | 146 ft | 0 kts | 69° |
| 2026-04-27 17:21 | 42.18106 | 42.46659 | 146 ft | 0 kts | 69° |
| 2026-04-27 17:29 | 42.18106 | 42.46658 | 146 ft | 0 kts | 69° |
| 2026-04-27 17:33 | 42.18106 | 42.46660 | 146 ft | 2 kts | 69° |
| 2026-04-27 17:34 | 42.18112 | 42.46684 | 146 ft | 3 kts | 71° |
| 2026-04-27 17:34 | 42.18104 | 42.46718 | 146 ft | 5 kts | 136° |
| 2026-04-27 17:34 | 42.18071 | 42.46745 | 146 ft | 6 kts | 156° |
| 2026-04-27 17:34 | 42.18044 | 42.46789 | 146 ft | 7 kts | 95° |
| 2026-04-27 17:35 | 42.18045 | 42.46861 | 146 ft | 8 kts | 106° |
| 2026-04-27 17:35 | 42.17999 | 42.46915 | 146 ft | 10 kts | 154° |
| 2026-04-27 17:35 | 42.17935 | 42.46957 | 146 ft | 11 kts | 154° |
| 2026-04-27 17:35 | 42.17897 | 42.47023 | 146 ft | 10 kts | 97° |
| 2026-04-27 17:36 | 42.17905 | 42.47123 | 146 ft | 11 kts | 80° |
| 2026-04-27 17:36 | 42.17916 | 42.47233 | 146 ft | 12 kts | 91° |
| 2026-04-27 17:36 | 42.17887 | 42.47332 | 146 ft | 12 kts | 135° |
| 2026-04-27 17:36 | 42.17809 | 42.47385 | 145 ft | 13 kts | 159° |
| 2026-04-27 17:37 | 42.17721 | 42.47429 | 145 ft | 14 kts | 159° |
| 2026-04-27 17:37 | 42.17629 | 42.47480 | 144 ft | 14 kts | 152° |
| 2026-04-27 17:37 | 42.17597 | 42.47585 | 144 ft | 13 kts | 85° |
| 2026-04-27 17:37 | 42.17612 | 42.47715 | 145 ft | 15 kts | 80° |
| 2026-04-27 17:38 | 42.17630 | 42.47859 | 146 ft | 16 kts | 81° |
| 2026-04-27 17:38 | 42.17649 | 42.48014 | 146 ft | 18 kts | 80° |
| 2026-04-27 17:38 | 42.17670 | 42.48183 | 147 ft | 19 kts | 79° |
| 2026-04-27 17:38 | 42.17692 | 42.48364 | 148 ft | 20 kts | 79° |
| 2026-04-27 17:39 | 42.17716 | 42.48555 | 149 ft | 21 kts | 80° |
| 2026-04-27 17:39 | 42.17744 | 42.48757 | 146 ft | 22 kts | 81° |
| 2026-04-27 17:39 | 42.17769 | 42.48966 | 145 ft | 23 kts | 81° |
| 2026-04-27 17:39 | 42.17797 | 42.49187 | 144 ft | 24 kts | 79° |
| 2026-04-27 17:40 | 42.17816 | 42.49335 | 143 ft | 24 kts | 80° |
| 2026-04-27 17:40 | 42.17849 | 42.49603 | 145 ft | 19 kts | 81° |
| 2026-04-27 17:40 | 42.17850 | 42.49713 | 145 ft | 8 kts | 71° |
| 2026-04-27 17:40 | 42.17874 | 42.49697 | 145 ft | 7 kts | 252° |
| 2026-04-27 17:41 | 42.17849 | 42.49613 | 145 ft | 19 kts | 251° |
| 2026-04-27 17:41 | 42.17826 | 42.49402 | 143 ft | 43 kts | 259° |
| 2026-04-27 17:41 | 42.17735 | 42.48697 | 147 ft | 110 kts | 261° |
| 2026-04-27 17:41 | 42.17573 | 42.47386 | 242 ft | 159 kts | 261° |
| 2026-04-27 17:42 | 42.17401 | 42.45962 | 1162 ft | 152 kts | 261° |
| 2026-04-27 17:42 | 42.17232 | 42.44600 | 1993 ft | 143 kts | 259° |
| 2026-04-27 17:42 | 42.17048 | 42.43255 | 2377 ft | 154 kts | 260° |
| 2026-04-27 17:42 | 42.16868 | 42.41720 | 2620 ft | 177 kts | 260° |
| 2026-04-27 17:43 | 42.16656 | 42.40003 | 2986 ft | 197 kts | 260° |
| 2026-04-27 17:43 | 42.16415 | 42.38071 | 3283 ft | 223 kts | 259° |
| 2026-04-27 17:43 | 42.16142 | 42.35902 | 3674 ft | 244 kts | 260° |
| 2026-04-27 17:43 | 42.15854 | 42.33604 | 4378 ft | 251 kts | 259° |
| 2026-04-27 17:44 | 42.15560 | 42.31268 | 5207 ft | 254 kts | 260° |
| 2026-04-27 17:44 | 42.15263 | 42.28907 | 6012 ft | 257 kts | 260° |
| 2026-04-27 17:44 | 42.14961 | 42.26516 | 6806 ft | 260 kts | 260° |
| 2026-04-27 17:44 | 42.14655 | 42.24093 | 7548 ft | 263 kts | 260° |
| 2026-04-27 17:45 | 42.14345 | 42.21642 | 8283 ft | 266 kts | 260° |
| 2026-04-27 17:45 | 42.13962 | 42.19185 | 9001 ft | 270 kts | 252° |
| 2026-04-27 17:45 | 42.13143 | 42.16882 | 9727 ft | 275 kts | 241° |
| 2026-04-27 17:45 | 42.12153 | 42.14659 | 10396 ft | 280 kts | 240° |
| 2026-04-27 17:46 | 42.11115 | 42.12351 | 10725 ft | 297 kts | 240° |
| 2026-04-27 17:46 | 42.10031 | 42.09924 | 10987 ft | 314 kts | 240° |
| 2026-04-27 17:46 | 42.08885 | 42.07350 | 11484 ft | 323 kts | 240° |
| 2026-04-27 17:46 | 42.07723 | 42.04734 | 12159 ft | 326 kts | 241° |
| 2026-04-27 17:47 | 42.06555 | 42.02103 | 12852 ft | 329 kts | 241° |
| 2026-04-27 17:47 | 42.05775 | 42.00344 | 13318 ft | 331 kts | 241° |
| 2026-04-27 17:47 | 42.04199 | 41.96790 | 14223 ft | 335 kts | 241° |
| 2026-04-27 17:47 | 42.02997 | 41.94080 | 14838 ft | 338 kts | 241° |
| 2026-04-27 17:48 | 42.01784 | 41.91348 | 15443 ft | 341 kts | 241° |
| 2026-04-27 17:48 | 42.00556 | 41.88584 | 16047 ft | 345 kts | 241° |
| 2026-04-27 17:48 | 41.99334 | 41.85836 | 16646 ft | 348 kts | 240° |
| 2026-04-27 17:48 | 41.98085 | 41.83031 | 17238 ft | 351 kts | 240° |
| 2026-04-27 17:49 | 41.96825 | 41.80201 | 17830 ft | 355 kts | 240° |
| 2026-04-27 17:49 | 41.95548 | 41.77335 | 18418 ft | 358 kts | 240° |
| 2026-04-27 17:49 | 41.94255 | 41.74447 | 18939 ft | 361 kts | 240° |
| 2026-04-27 17:49 | 41.92954 | 41.71539 | 19452 ft | 364 kts | 240° |
| 2026-04-27 17:50 | 41.91644 | 41.68610 | 19969 ft | 366 kts | 240° |
| 2026-04-27 17:50 | 41.89019 | 41.62738 | 20960 ft | 371 kts | 241° |
| 2026-04-27 17:50 | 41.87769 | 41.59689 | 21447 ft | 374 kts | 241° |
| 2026-04-27 17:51 | 41.86880 | 41.57706 | 21765 ft | 376 kts | 239° |
| 2026-04-27 17:51 | 41.85488 | 41.54718 | 22244 ft | 378 kts | 239° |
| 2026-04-27 17:51 | 41.84090 | 41.51694 | 22719 ft | 381 kts | 239° |
| 2026-04-27 17:51 | 41.82699 | 41.48649 | 23178 ft | 384 kts | 239° |
| 2026-04-27 17:52 | 41.81308 | 41.45578 | 23627 ft | 386 kts | 239° |
| 2026-04-27 17:52 | 41.79906 | 41.42476 | 24044 ft | 389 kts | 239° |
| 2026-04-27 17:52 | 41.78517 | 41.39401 | 24430 ft | 391 kts | 239° |
| 2026-04-27 17:52 | 41.77101 | 41.36269 | 24806 ft | 393 kts | 239° |
| 2026-04-27 17:53 | 41.75677 | 41.33121 | 25187 ft | 395 kts | 239° |
| 2026-04-27 17:53 | 41.74250 | 41.29969 | 25557 ft | 397 kts | 239° |
| 2026-04-27 17:53 | 41.72809 | 41.26791 | 25920 ft | 399 kts | 239° |
| 2026-04-27 17:53 | 41.71361 | 41.23600 | 26284 ft | 401 kts | 239° |
| 2026-04-27 17:54 | 41.69907 | 41.20399 | 26646 ft | 403 kts | 239° |
| 2026-04-27 17:54 | 41.68447 | 41.17190 | 26989 ft | 405 kts | 239° |
| 2026-04-27 17:54 | 41.66983 | 41.13961 | 27321 ft | 407 kts | 240° |
| 2026-04-27 17:54 | 41.65751 | 41.10597 | 27635 ft | 408 kts | 250° |
| 2026-04-27 17:55 | 41.65023 | 41.06915 | 27948 ft | 410 kts | 259° |
| 2026-04-27 17:55 | 41.64439 | 41.03174 | 28279 ft | 411 kts | 257° |
| 2026-04-27 17:55 | 41.63730 | 40.99447 | 28601 ft | 413 kts | 256° |
| 2026-04-27 17:55 | 41.63051 | 40.95742 | 28895 ft | 415 kts | 257° |
| 2026-04-27 17:56 | 41.62456 | 40.91950 | 29215 ft | 417 kts | 259° |
| 2026-04-27 17:56 | 41.61921 | 40.88126 | 29512 ft | 419 kts | 260° |
| 2026-04-27 17:56 | 41.61409 | 40.84278 | 29817 ft | 420 kts | 260° |
| 2026-04-27 17:56 | 41.60904 | 40.80415 | 30099 ft | 422 kts | 260° |
| 2026-04-27 17:57 | 41.60402 | 40.76578 | 30355 ft | 424 kts | 260° |
| 2026-04-27 17:57 | 41.59893 | 40.72690 | 30595 ft | 425 kts | 260° |
| 2026-04-27 17:57 | 41.59469 | 40.68766 | 30832 ft | 426 kts | 265° |
| 2026-04-27 17:57 | 41.59297 | 40.64817 | 31144 ft | 425 kts | 269° |
| 2026-04-27 17:58 | 41.59412 | 40.60868 | 31459 ft | 424 kts | 275° |
| 2026-04-27 17:58 | 41.59678 | 40.56987 | 31762 ft | 423 kts | 275° |
| 2026-04-27 17:58 | 41.59924 | 40.53068 | 32053 ft | 422 kts | 274° |
| 2026-04-27 17:58 | 41.60144 | 40.49158 | 32295 ft | 422 kts | 274° |
| 2026-04-27 17:59 | 41.60547 | 40.41317 | 32324 ft | 422 kts | 274° |
| 2026-04-27 17:59 | 41.60910 | 40.33528 | 32311 ft | 421 kts | 273° |
| 2026-04-27 18:00 | 41.61268 | 40.25687 | 32309 ft | 421 kts | 273° |
| 2026-04-27 18:00 | 41.61641 | 40.17905 | 32308 ft | 421 kts | 273° |
| 2026-04-27 18:01 | 41.62009 | 40.10082 | 32309 ft | 421 kts | 273° |
| 2026-04-27 18:01 | 41.62373 | 40.02307 | 32313 ft | 421 kts | 273° |
| 2026-04-27 18:02 | 41.62735 | 39.94479 | 32312 ft | 421 kts | 273° |
| 2026-04-27 18:02 | 41.63088 | 39.86705 | 32311 ft | 421 kts | 273° |
| 2026-04-27 18:03 | 41.63437 | 39.78875 | 32311 ft | 421 kts | 273° |
| 2026-04-27 18:03 | 41.63778 | 39.71107 | 32306 ft | 420 kts | 273° |
| 2026-04-27 18:04 | 41.64115 | 39.63289 | 32313 ft | 420 kts | 273° |
| 2026-04-27 18:04 | 41.64446 | 39.55493 | 32322 ft | 419 kts | 273° |
| 2026-04-27 18:05 | 41.64769 | 39.47738 | 32312 ft | 419 kts | 273° |
| 2026-04-27 18:05 | 41.65089 | 39.39940 | 32312 ft | 419 kts | 273° |
| 2026-04-27 18:06 | 41.65272 | 39.32202 | 32315 ft | 418 kts | 270° |
| 2026-04-27 18:06 | 41.65515 | 39.24445 | 32309 ft | 418 kts | 279° |
| 2026-04-27 18:07 | 41.66492 | 39.16772 | 32314 ft | 418 kts | 276° |
| 2026-04-27 18:07 | 41.66625 | 39.09019 | 32319 ft | 417 kts | 268° |
| 2026-04-27 18:08 | 41.66640 | 39.01247 | 32315 ft | 417 kts | 271° |
| 2026-04-27 18:08 | 41.67160 | 38.93572 | 32318 ft | 416 kts | 277° |
| 2026-04-27 18:09 | 41.67779 | 38.85866 | 32315 ft | 416 kts | 274° |
| 2026-04-27 18:09 | 41.68103 | 38.78192 | 32314 ft | 415 kts | 271° |
| 2026-04-27 18:10 | 41.67912 | 38.70469 | 32316 ft | 415 kts | 269° |
| 2026-04-27 18:10 | 41.67992 | 38.62721 | 32319 ft | 415 kts | 272° |
| 2026-04-27 18:11 | 41.68232 | 38.55038 | 32319 ft | 415 kts | 272° |
| 2026-04-27 18:11 | 41.68488 | 38.47324 | 32317 ft | 414 kts | 272° |
| 2026-04-27 18:12 | 41.68735 | 38.39655 | 32317 ft | 414 kts | 272° |
| 2026-04-27 18:12 | 41.68979 | 38.31956 | 32316 ft | 413 kts | 272° |
| 2026-04-27 18:13 | 41.69215 | 38.24301 | 32320 ft | 413 kts | 272° |
| 2026-04-27 18:13 | 41.69448 | 38.16610 | 32318 ft | 413 kts | 272° |
| 2026-04-27 18:14 | 41.69673 | 38.08973 | 32320 ft | 412 kts | 272° |
| 2026-04-27 18:14 | 41.69896 | 38.01274 | 32322 ft | 412 kts | 272° |
| 2026-04-27 18:15 | 41.70111 | 37.93658 | 32319 ft | 412 kts | 272° |
| 2026-04-27 18:15 | 41.70323 | 37.85980 | 32315 ft | 411 kts | 272° |
| 2026-04-27 18:16 | 41.70528 | 37.78374 | 32316 ft | 411 kts | 272° |
| 2026-04-27 18:16 | 41.70714 | 37.70730 | 32316 ft | 411 kts | 270° |
| 2026-04-27 18:17 | 41.69704 | 37.63239 | 32316 ft | 412 kts | 249° |
| 2026-04-27 18:17 | 41.67097 | 37.56362 | 32320 ft | 414 kts | 243° |
| 2026-04-27 18:18 | 41.64398 | 37.49610 | 32317 ft | 414 kts | 244° |
| 2026-04-27 18:18 | 41.61677 | 37.42809 | 32315 ft | 414 kts | 244° |
| 2026-04-27 18:19 | 41.58990 | 37.35985 | 32314 ft | 414 kts | 244° |
| 2026-04-27 18:19 | 41.56318 | 37.29213 | 32315 ft | 414 kts | 244° |
| 2026-04-27 18:20 | 41.53622 | 37.22404 | 32314 ft | 415 kts | 244° |
| 2026-04-27 18:20 | 41.50915 | 37.15582 | 32313 ft | 415 kts | 244° |
| 2026-04-27 18:21 | 41.48222 | 37.08813 | 32317 ft | 415 kts | 243° |
| 2026-04-27 18:21 | 41.45504 | 37.01999 | 32310 ft | 415 kts | 243° |
| 2026-04-27 18:22 | 41.42805 | 36.95253 | 32313 ft | 415 kts | 243° |
| 2026-04-27 18:22 | 41.40083 | 36.88451 | 32315 ft | 416 kts | 243° |
| 2026-04-27 18:23 | 41.37348 | 36.81641 | 32315 ft | 416 kts | 243° |
| 2026-04-27 18:23 | 41.34610 | 36.74838 | 32316 ft | 417 kts | 243° |
| 2026-04-27 18:24 | 41.31864 | 36.68031 | 32318 ft | 417 kts | 243° |
| 2026-04-27 18:24 | 41.29156 | 36.61257 | 32316 ft | 417 kts | 246° |
| 2026-04-27 18:25 | 41.27708 | 36.53874 | 32317 ft | 415 kts | 268° |
| 2026-04-27 18:25 | 41.27884 | 36.50036 | 32318 ft | 415 kts | 279° |
| 2026-04-27 18:25 | 41.28631 | 36.46324 | 32325 ft | 416 kts | 287° |
| 2026-04-27 18:26 | 41.30557 | 36.39066 | 32320 ft | 416 kts | 288° |
| 2026-04-27 18:26 | 41.32430 | 36.31833 | 32315 ft | 415 kts | 287° |
| 2026-04-27 18:27 | 41.34277 | 36.24538 | 32318 ft | 415 kts | 287° |
| 2026-04-27 18:27 | 41.36107 | 36.17295 | 32310 ft | 414 kts | 287° |
| 2026-04-27 18:28 | 41.37937 | 36.10014 | 32305 ft | 414 kts | 287° |
| 2026-04-27 18:28 | 41.39764 | 36.02743 | 32306 ft | 413 kts | 287° |
| 2026-04-27 18:29 | 41.41589 | 35.95460 | 32302 ft | 413 kts | 287° |
| 2026-04-27 18:29 | 41.43396 | 35.88229 | 32299 ft | 413 kts | 287° |
| 2026-04-27 18:30 | 41.45206 | 35.80950 | 32299 ft | 413 kts | 287° |
| 2026-04-27 18:30 | 41.47010 | 35.73675 | 32293 ft | 413 kts | 287° |
| 2026-04-27 18:31 | 41.48799 | 35.66443 | 32291 ft | 412 kts | 287° |
| 2026-04-27 18:31 | 41.50593 | 35.59164 | 32294 ft | 412 kts | 287° |
| 2026-04-27 18:32 | 41.52378 | 35.51891 | 32289 ft | 411 kts | 287° |
| 2026-04-27 18:32 | 41.54147 | 35.44666 | 32288 ft | 411 kts | 287° |
| 2026-04-27 18:33 | 41.55919 | 35.37409 | 32289 ft | 411 kts | 287° |
| 2026-04-27 18:33 | 41.57672 | 35.30197 | 32291 ft | 410 kts | 286° |
| 2026-04-27 18:34 | 41.59432 | 35.22954 | 32294 ft | 410 kts | 286° |
| 2026-04-27 18:34 | 41.61189 | 35.15680 | 32291 ft | 410 kts | 286° |
| 2026-04-27 18:35 | 41.62931 | 35.08472 | 32290 ft | 410 kts | 286° |
| 2026-04-27 18:35 | 41.64676 | 35.01219 | 32286 ft | 410 kts | 286° |
| 2026-04-27 18:36 | 41.66419 | 34.93941 | 32289 ft | 409 kts | 286° |
| 2026-04-27 18:36 | 41.68144 | 34.86721 | 32292 ft | 409 kts | 286° |
| 2026-04-27 18:37 | 41.69873 | 34.79457 | 32290 ft | 409 kts | 286° |
| 2026-04-27 18:37 | 41.71596 | 34.72204 | 32286 ft | 409 kts | 286° |
| 2026-04-27 18:38 | 41.73305 | 34.64985 | 32287 ft | 409 kts | 286° |
| 2026-04-27 18:38 | 41.75017 | 34.57724 | 32288 ft | 408 kts | 286° |
| 2026-04-27 18:39 | 41.76438 | 34.51682 | 32289 ft | 408 kts | 286° |
| 2026-04-27 18:39 | 41.78142 | 34.44422 | 32284 ft | 408 kts | 285° |
| 2026-04-27 18:40 | 41.79841 | 34.37150 | 32283 ft | 408 kts | 285° |
| 2026-04-27 18:40 | 41.81524 | 34.29923 | 32285 ft | 408 kts | 285° |
| 2026-04-27 18:41 | 41.83212 | 34.22660 | 32286 ft | 407 kts | 285° |
| 2026-04-27 18:41 | 41.84898 | 34.15381 | 32287 ft | 408 kts | 285° |
| 2026-04-27 18:42 | 41.86293 | 34.09340 | 32288 ft | 408 kts | 285° |
| 2026-04-27 18:42 | 41.88239 | 34.00885 | 32292 ft | 407 kts | 285° |
| 2026-04-27 18:43 | 41.89909 | 33.93598 | 32296 ft | 408 kts | 285° |
| 2026-04-27 18:43 | 41.91571 | 33.86317 | 32297 ft | 408 kts | 285° |
| 2026-04-27 18:44 | 41.93228 | 33.79056 | 32299 ft | 407 kts | 285° |
| 2026-04-27 18:44 | 41.94870 | 33.71811 | 32297 ft | 407 kts | 285° |
| 2026-04-27 18:45 | 41.96332 | 33.64470 | 32300 ft | 407 kts | 283° |
| 2026-04-27 18:45 | 41.97754 | 33.57104 | 32301 ft | 407 kts | 283° |
| 2026-04-27 18:46 | 41.99164 | 33.49773 | 32298 ft | 406 kts | 283° |
| 2026-04-27 18:46 | 42.00573 | 33.42403 | 32299 ft | 406 kts | 283° |
| 2026-04-27 18:47 | 42.01979 | 33.35040 | 32294 ft | 406 kts | 283° |
| 2026-04-27 18:47 | 42.03378 | 33.27676 | 32297 ft | 406 kts | 282° |
| 2026-04-27 18:48 | 42.04766 | 33.20359 | 32296 ft | 405 kts | 282° |
| 2026-04-27 18:48 | 42.06157 | 33.12992 | 32289 ft | 405 kts | 282° |
| 2026-04-27 18:49 | 42.07557 | 33.05737 | 32293 ft | 406 kts | 283° |
| 2026-04-27 18:49 | 42.09078 | 32.98318 | 32291 ft | 405 kts | 283° |
| 2026-04-27 18:50 | 42.10564 | 32.91041 | 32292 ft | 405 kts | 283° |
| 2026-04-27 18:50 | 42.12051 | 32.83708 | 32288 ft | 405 kts | 283° |
| 2026-04-27 18:51 | 42.13530 | 32.76416 | 32288 ft | 405 kts | 283° |
| 2026-04-27 18:51 | 42.15018 | 32.69077 | 32290 ft | 405 kts | 283° |
| 2026-04-27 18:52 | 42.16493 | 32.61749 | 32290 ft | 405 kts | 283° |
| 2026-04-27 18:53 | 42.18693 | 32.50787 | 32289 ft | 404 kts | 283° |
| 2026-04-27 18:53 | 42.20153 | 32.43456 | 32288 ft | 404 kts | 283° |
| 2026-04-27 18:54 | 42.21602 | 32.36154 | 32293 ft | 404 kts | 283° |
| 2026-04-27 18:54 | 42.23058 | 32.28806 | 32289 ft | 404 kts | 283° |
| 2026-04-27 18:55 | 42.24504 | 32.21461 | 32287 ft | 405 kts | 283° |
| 2026-04-27 18:55 | 42.25944 | 32.14105 | 32292 ft | 405 kts | 283° |
| 2026-04-27 18:56 | 42.27369 | 32.06793 | 32292 ft | 405 kts | 283° |
| 2026-04-27 18:56 | 42.28813 | 31.99429 | 32294 ft | 405 kts | 283° |
| 2026-04-27 18:57 | 42.30250 | 31.92054 | 32288 ft | 405 kts | 283° |
| 2026-04-27 18:57 | 42.31671 | 31.84721 | 32290 ft | 406 kts | 283° |
| 2026-04-27 18:58 | 42.33097 | 31.77336 | 32293 ft | 406 kts | 283° |
| 2026-04-27 18:58 | 42.34518 | 31.69946 | 32293 ft | 406 kts | 283° |
| 2026-04-27 18:59 | 42.35937 | 31.62541 | 32290 ft | 406 kts | 283° |
| 2026-04-27 18:59 | 42.37331 | 31.55178 | 32293 ft | 407 kts | 283° |
| 2026-04-27 19:00 | 42.38742 | 31.47768 | 32296 ft | 407 kts | 283° |
| 2026-04-27 19:00 | 42.40162 | 31.40346 | 32296 ft | 407 kts | 283° |
| 2026-04-27 19:01 | 42.41568 | 31.32912 | 32296 ft | 407 kts | 283° |
| 2026-04-27 19:01 | 42.42964 | 31.25504 | 32294 ft | 408 kts | 283° |
| 2026-04-27 19:02 | 42.44365 | 31.18025 | 32328 ft | 409 kts | 283° |
| 2026-04-27 19:02 | 42.45055 | 31.14329 | 32557 ft | 410 kts | 283° |
| 2026-04-27 19:02 | 42.45747 | 31.10574 | 32852 ft | 409 kts | 283° |
| 2026-04-27 19:02 | 42.46441 | 31.06841 | 33145 ft | 408 kts | 283° |
| 2026-04-27 19:03 | 42.47136 | 31.03107 | 33408 ft | 407 kts | 283° |
| 2026-04-27 19:03 | 42.47819 | 30.99431 | 33672 ft | 407 kts | 283° |
| 2026-04-27 19:03 | 42.48509 | 30.95703 | 33905 ft | 407 kts | 283° |
| 2026-04-27 19:03 | 42.48967 | 30.93226 | 34041 ft | 407 kts | 283° |
| 2026-04-27 19:04 | 42.49886 | 30.88236 | 34297 ft | 408 kts | 283° |
| 2026-04-27 19:04 | 42.51250 | 30.80795 | 34319 ft | 409 kts | 283° |
| 2026-04-27 19:05 | 42.52613 | 30.73304 | 34306 ft | 409 kts | 282° |
| 2026-04-27 19:05 | 42.53967 | 30.65811 | 34293 ft | 409 kts | 282° |
| 2026-04-27 19:06 | 42.55329 | 30.58300 | 34298 ft | 409 kts | 282° |
| 2026-04-27 19:06 | 42.56684 | 30.50797 | 34292 ft | 409 kts | 282° |
| 2026-04-27 19:07 | 42.58035 | 30.43329 | 34302 ft | 409 kts | 282° |
| 2026-04-27 19:07 | 42.59385 | 30.35816 | 34292 ft | 410 kts | 282° |
| 2026-04-27 19:08 | 42.60818 | 30.28319 | 34291 ft | 410 kts | 288° |
| 2026-04-27 19:08 | 42.62032 | 30.24803 | 34296 ft | 413 kts | 299° |
| 2026-04-27 19:08 | 42.63668 | 30.21644 | 34304 ft | 415 kts | 304° |
| 2026-04-27 19:09 | 42.67209 | 30.15432 | 34308 ft | 415 kts | 305° |
| 2026-04-27 19:09 | 42.70726 | 30.09196 | 34288 ft | 414 kts | 304° |
| 2026-04-27 19:10 | 42.74213 | 30.02952 | 34290 ft | 414 kts | 304° |
| 2026-04-27 19:10 | 42.77673 | 29.96733 | 34294 ft | 414 kts | 304° |
| 2026-04-27 19:11 | 42.81139 | 29.90461 | 34296 ft | 414 kts | 304° |
| 2026-04-27 19:11 | 42.84592 | 29.84172 | 34296 ft | 414 kts | 304° |
| 2026-04-27 19:12 | 42.88044 | 29.77883 | 34295 ft | 414 kts | 304° |
| 2026-04-27 19:12 | 42.91510 | 29.71677 | 34295 ft | 413 kts | 304° |
| 2026-04-27 19:13 | 42.95000 | 29.65420 | 34298 ft | 413 kts | 304° |
| 2026-04-27 19:13 | 42.98440 | 29.59187 | 34297 ft | 413 kts | 304° |
| 2026-04-27 19:14 | 43.01884 | 29.52902 | 34295 ft | 412 kts | 304° |
| 2026-04-27 19:14 | 43.05307 | 29.46662 | 34296 ft | 411 kts | 304° |
| 2026-04-27 19:15 | 43.08719 | 29.40385 | 34297 ft | 411 kts | 304° |
| 2026-04-27 19:15 | 43.12147 | 29.34105 | 34296 ft | 410 kts | 304° |
| 2026-04-27 19:16 | 43.15567 | 29.27840 | 34297 ft | 410 kts | 304° |
| 2026-04-27 19:16 | 43.18953 | 29.21613 | 34296 ft | 409 kts | 304° |
| 2026-04-27 19:17 | 43.22349 | 29.15353 | 34296 ft | 408 kts | 304° |
| 2026-04-27 19:17 | 43.25732 | 29.09094 | 34293 ft | 408 kts | 304° |
| 2026-04-27 19:18 | 43.29079 | 29.02861 | 34297 ft | 407 kts | 303° |
| 2026-04-27 19:18 | 43.32422 | 28.96573 | 34296 ft | 407 kts | 304° |
| 2026-04-27 19:19 | 43.35807 | 28.90339 | 34297 ft | 405 kts | 304° |
| 2026-04-27 19:19 | 43.39137 | 28.84155 | 34294 ft | 404 kts | 304° |
| 2026-04-27 19:20 | 43.42466 | 28.77926 | 34292 ft | 404 kts | 303° |
| 2026-04-27 19:20 | 43.45798 | 28.71705 | 34293 ft | 403 kts | 303° |
| 2026-04-27 19:21 | 43.49086 | 28.65494 | 34290 ft | 403 kts | 303° |
| 2026-04-27 19:21 | 43.52382 | 28.59236 | 34293 ft | 403 kts | 303° |
| 2026-04-27 19:22 | 43.55695 | 28.52973 | 34283 ft | 403 kts | 303° |
| 2026-04-27 19:22 | 43.58976 | 28.46765 | 34277 ft | 403 kts | 303° |
| 2026-04-27 19:23 | 43.62304 | 28.40530 | 34272 ft | 402 kts | 303° |
| 2026-04-27 19:23 | 43.65622 | 28.34297 | 34265 ft | 402 kts | 303° |
| 2026-04-27 19:24 | 43.68889 | 28.28080 | 34260 ft | 402 kts | 303° |
| 2026-04-27 19:24 | 43.72175 | 28.21823 | 34254 ft | 402 kts | 303° |
| 2026-04-27 19:25 | 43.74904 | 28.16617 | 34248 ft | 402 kts | 303° |
| 2026-04-27 19:25 | 43.78197 | 28.10335 | 34246 ft | 402 kts | 303° |
| 2026-04-27 19:26 | 43.81464 | 28.04085 | 34240 ft | 402 kts | 303° |
| 2026-04-27 19:26 | 43.84738 | 27.97797 | 34241 ft | 402 kts | 303° |
| 2026-04-27 19:27 | 43.87993 | 27.91521 | 34237 ft | 402 kts | 303° |
| 2026-04-27 19:27 | 43.91253 | 27.85222 | 34239 ft | 402 kts | 303° |
| 2026-04-27 19:28 | 43.94517 | 27.78906 | 34234 ft | 402 kts | 302° |
| 2026-04-27 19:28 | 43.97751 | 27.72568 | 34225 ft | 402 kts | 303° |
| 2026-04-27 19:29 | 44.01005 | 27.66248 | 34228 ft | 402 kts | 303° |
| 2026-04-27 19:29 | 44.04245 | 27.59979 | 34215 ft | 401 kts | 303° |
| 2026-04-27 19:30 | 44.07490 | 27.53660 | 34228 ft | 401 kts | 303° |
| 2026-04-27 19:30 | 44.10733 | 27.47328 | 34207 ft | 401 kts | 303° |
| 2026-04-27 19:31 | 44.13952 | 27.40971 | 34215 ft | 401 kts | 302° |
| 2026-04-27 19:31 | 44.17172 | 27.34613 | 34212 ft | 401 kts | 303° |
| 2026-04-27 19:32 | 44.20386 | 27.28300 | 34207 ft | 401 kts | 303° |
| 2026-04-27 19:32 | 44.23598 | 27.21932 | 34211 ft | 401 kts | 303° |
| 2026-04-27 19:33 | 44.26823 | 27.15578 | 34204 ft | 401 kts | 303° |
| 2026-04-27 19:33 | 44.30017 | 27.09243 | 34205 ft | 401 kts | 303° |
| 2026-04-27 19:34 | 44.33236 | 27.02861 | 34194 ft | 401 kts | 303° |
| 2026-04-27 19:34 | 44.36440 | 26.96502 | 34196 ft | 402 kts | 303° |
| 2026-04-27 19:35 | 44.39660 | 26.90091 | 34192 ft | 402 kts | 302° |
| 2026-04-27 19:35 | 44.42870 | 26.83667 | 34204 ft | 402 kts | 302° |
| 2026-04-27 19:35 | 44.44478 | 26.80461 | 34440 ft | 398 kts | 303° |
| 2026-04-27 19:36 | 44.46054 | 26.77355 | 34755 ft | 394 kts | 303° |
| 2026-04-27 19:36 | 44.47635 | 26.74224 | 34910 ft | 395 kts | 303° |
| 2026-04-27 19:36 | 44.49236 | 26.71039 | 34769 ft | 403 kts | 304° |
| 2026-04-27 19:36 | 44.51009 | 26.67942 | 34567 ft | 407 kts | 307° |
| 2026-04-27 19:37 | 44.52788 | 26.64846 | 34345 ft | 406 kts | 305° |
| 2026-04-27 19:37 | 44.54464 | 26.61728 | 34182 ft | 405 kts | 303° |
| 2026-04-27 19:37 | 44.56109 | 26.58518 | 34155 ft | 405 kts | 303° |
| 2026-04-27 19:38 | 44.59130 | 26.51828 | 34180 ft | 405 kts | 298° |
| 2026-04-27 19:38 | 44.62150 | 26.45146 | 34185 ft | 406 kts | 301° |
| 2026-04-27 19:39 | 44.65324 | 26.38620 | 34196 ft | 406 kts | 302° |
| 2026-04-27 19:39 | 44.68541 | 26.32079 | 34192 ft | 406 kts | 302° |
| 2026-04-27 19:40 | 44.71738 | 26.25569 | 34201 ft | 406 kts | 302° |
| 2026-04-27 19:40 | 44.74945 | 26.19021 | 34204 ft | 406 kts | 302° |
| 2026-04-27 19:41 | 44.78150 | 26.12465 | 34200 ft | 406 kts | 302° |
| 2026-04-27 19:41 | 44.81352 | 26.05898 | 34196 ft | 406 kts | 302° |
| 2026-04-27 19:42 | 44.84531 | 25.99362 | 34191 ft | 406 kts | 302° |
| 2026-04-27 19:42 | 44.87720 | 25.92792 | 34190 ft | 406 kts | 302° |
| 2026-04-27 19:43 | 44.90930 | 25.86215 | 34197 ft | 406 kts | 302° |
| 2026-04-27 19:43 | 44.94080 | 25.79662 | 34195 ft | 405 kts | 302° |
| 2026-04-27 19:44 | 44.97249 | 25.73073 | 34202 ft | 405 kts | 302° |
| 2026-04-27 19:44 | 45.00424 | 25.66470 | 34204 ft | 405 kts | 302° |
| 2026-04-27 19:45 | 45.03568 | 25.59919 | 34205 ft | 404 kts | 302° |
| 2026-04-27 19:45 | 45.06724 | 25.53327 | 34208 ft | 404 kts | 303° |
| 2026-04-27 19:46 | 45.09873 | 25.46734 | 34212 ft | 404 kts | 302° |
| 2026-04-27 19:46 | 45.13022 | 25.40127 | 34210 ft | 404 kts | 302° |
| 2026-04-27 19:47 | 45.16149 | 25.33551 | 34213 ft | 404 kts | 302° |
| 2026-04-27 19:47 | 45.19289 | 25.26933 | 34216 ft | 404 kts | 302° |
| 2026-04-27 19:48 | 45.22414 | 25.20330 | 34218 ft | 404 kts | 302° |
| 2026-04-27 19:48 | 45.25549 | 25.13691 | 34220 ft | 404 kts | 302° |
| 2026-04-27 19:49 | 45.28678 | 25.07049 | 34220 ft | 404 kts | 302° |
| 2026-04-27 19:49 | 45.31758 | 25.00419 | 34219 ft | 404 kts | 299° |
| 2026-04-27 19:50 | 45.34253 | 24.93255 | 34225 ft | 404 kts | 295° |
| 2026-04-27 19:50 | 45.36660 | 24.86022 | 34225 ft | 404 kts | 295° |
| 2026-04-27 19:51 | 45.39075 | 24.78797 | 34225 ft | 404 kts | 295° |
| 2026-04-27 19:51 | 45.41480 | 24.71621 | 34215 ft | 404 kts | 295° |
| 2026-04-27 19:52 | 45.43893 | 24.64395 | 34214 ft | 403 kts | 295° |
| 2026-04-27 19:52 | 45.46296 | 24.57174 | 34207 ft | 403 kts | 295° |
| 2026-04-27 19:53 | 45.49882 | 24.46353 | 34207 ft | 403 kts | 296° |
| 2026-04-27 19:53 | 45.52272 | 24.39131 | 34207 ft | 403 kts | 296° |
| 2026-04-27 19:54 | 45.54647 | 24.31927 | 34203 ft | 403 kts | 296° |
| 2026-04-27 19:54 | 45.56875 | 24.24576 | 34191 ft | 403 kts | 290° |
| 2026-04-27 19:55 | 45.58866 | 24.17084 | 34187 ft | 403 kts | 294° |
| 2026-04-27 19:55 | 45.61137 | 24.09831 | 34186 ft | 402 kts | 296° |
| 2026-04-27 19:56 | 45.63538 | 24.02591 | 34177 ft | 402 kts | 300° |
| 2026-04-27 19:56 | 45.66328 | 23.95665 | 34180 ft | 402 kts | 299° |
| 2026-04-27 19:57 | 45.68820 | 23.88499 | 34188 ft | 402 kts | 297° |
| 2026-04-27 19:57 | 45.71187 | 23.81235 | 34196 ft | 402 kts | 296° |
| 2026-04-27 19:58 | 45.73521 | 23.73994 | 34201 ft | 402 kts | 296° |
| 2026-04-27 19:58 | 45.75869 | 23.66695 | 34214 ft | 403 kts | 296° |
| 2026-04-27 19:59 | 45.78201 | 23.59426 | 34221 ft | 403 kts | 296° |
| 2026-04-27 19:59 | 45.80545 | 23.52094 | 34223 ft | 403 kts | 297° |
| 2026-04-27 20:00 | 45.82871 | 23.44799 | 34228 ft | 404 kts | 297° |
| 2026-04-27 20:00 | 45.85205 | 23.37459 | 34227 ft | 404 kts | 297° |
| 2026-04-27 20:01 | 45.87516 | 23.30170 | 34223 ft | 404 kts | 297° |
| 2026-04-27 20:01 | 45.89841 | 23.22814 | 34223 ft | 403 kts | 297° |
| 2026-04-27 20:02 | 45.92154 | 23.15473 | 34224 ft | 403 kts | 297° |
| 2026-04-27 20:02 | 45.94452 | 23.08160 | 34225 ft | 403 kts | 297° |
| 2026-04-27 20:03 | 45.96755 | 23.00811 | 34226 ft | 402 kts | 297° |
| 2026-04-27 20:03 | 45.98998 | 22.93473 | 34220 ft | 403 kts | 295° |
| 2026-04-27 20:04 | 46.01176 | 22.86044 | 34222 ft | 401 kts | 298° |
| 2026-04-27 20:04 | 46.03177 | 22.80012 | 34222 ft | 401 kts | 298° |
| 2026-04-27 20:05 | 46.05865 | 22.71514 | 34220 ft | 401 kts | 297° |
| 2026-04-27 20:05 | 46.08134 | 22.64165 | 34223 ft | 401 kts | 297° |
| 2026-04-27 20:06 | 46.10394 | 22.56823 | 34232 ft | 401 kts | 297° |
| 2026-04-27 20:06 | 46.12636 | 22.49514 | 34226 ft | 401 kts | 297° |
| 2026-04-27 20:07 | 46.14891 | 22.42146 | 34219 ft | 400 kts | 297° |
| 2026-04-27 20:07 | 46.17129 | 22.34782 | 34225 ft | 400 kts | 297° |
| 2026-04-27 20:08 | 46.19354 | 22.27455 | 34217 ft | 400 kts | 297° |
| 2026-04-27 20:08 | 46.21590 | 22.20088 | 34213 ft | 399 kts | 297° |
| 2026-04-27 20:09 | 46.23812 | 22.12743 | 34206 ft | 399 kts | 297° |
| 2026-04-27 20:09 | 46.26018 | 22.05440 | 34208 ft | 399 kts | 297° |
| 2026-04-27 20:10 | 46.27862 | 21.99314 | 34217 ft | 399 kts | 297° |
| 2026-04-27 20:10 | 46.30067 | 21.91956 | 34197 ft | 398 kts | 297° |
| 2026-04-27 20:11 | 46.32263 | 21.84593 | 34193 ft | 398 kts | 297° |
| 2026-04-27 20:11 | 46.34462 | 21.77244 | 34189 ft | 398 kts | 297° |
| 2026-04-27 20:12 | 46.36634 | 21.69923 | 34199 ft | 397 kts | 297° |
| 2026-04-27 20:12 | 46.38796 | 21.62535 | 34190 ft | 397 kts | 297° |
| 2026-04-27 20:13 | 46.40955 | 21.55202 | 34189 ft | 397 kts | 297° |
| 2026-04-27 20:13 | 46.43116 | 21.47829 | 34186 ft | 396 kts | 297° |
| 2026-04-27 20:14 | 46.45261 | 21.40495 | 34186 ft | 396 kts | 297° |
| 2026-04-27 20:14 | 46.47420 | 21.33122 | 34185 ft | 396 kts | 297° |
| 2026-04-27 20:15 | 46.49557 | 21.25804 | 34184 ft | 396 kts | 295° |
| 2026-04-27 20:15 | 46.51539 | 21.18326 | 34187 ft | 396 kts | 295° |
| 2026-04-27 20:16 | 46.53507 | 21.10828 | 34184 ft | 396 kts | 295° |
| 2026-04-27 20:16 | 46.55451 | 21.03402 | 34182 ft | 396 kts | 295° |
| 2026-04-27 20:17 | 46.57404 | 20.95893 | 34175 ft | 396 kts | 294° |
| 2026-04-27 20:17 | 46.59340 | 20.88370 | 34179 ft | 396 kts | 294° |
| 2026-04-27 20:18 | 46.61270 | 20.80919 | 34183 ft | 396 kts | 294° |
| 2026-04-27 20:18 | 46.63202 | 20.73403 | 34179 ft | 396 kts | 294° |
| 2026-04-27 20:19 | 46.65121 | 20.65919 | 34175 ft | 396 kts | 294° |
| 2026-04-27 20:19 | 46.67046 | 20.58398 | 34174 ft | 396 kts | 294° |
| 2026-04-27 20:20 | 46.68961 | 20.50859 | 34172 ft | 396 kts | 294° |
| 2026-04-27 20:20 | 46.70867 | 20.43362 | 34169 ft | 396 kts | 294° |
| 2026-04-27 20:21 | 46.72790 | 20.35816 | 34169 ft | 396 kts | 295° |
| 2026-04-27 20:21 | 46.74809 | 20.28336 | 34172 ft | 396 kts | 295° |
| 2026-04-27 20:22 | 46.76825 | 20.20908 | 34175 ft | 396 kts | 295° |
| 2026-04-27 20:22 | 46.78849 | 20.13411 | 34176 ft | 396 kts | 295° |
| 2026-04-27 20:23 | 46.80864 | 20.05909 | 34185 ft | 396 kts | 295° |
| 2026-04-27 20:23 | 46.82834 | 19.98426 | 34190 ft | 397 kts | 294° |
| 2026-04-27 20:24 | 46.84824 | 19.90899 | 34194 ft | 396 kts | 294° |
| 2026-04-27 20:24 | 46.86809 | 19.83417 | 34200 ft | 397 kts | 294° |
| 2026-04-27 20:25 | 46.88786 | 19.75977 | 34197 ft | 396 kts | 294° |
| 2026-04-27 20:25 | 46.90804 | 19.68469 | 34199 ft | 396 kts | 294° |
| 2026-04-27 20:26 | 46.92799 | 19.60955 | 34199 ft | 396 kts | 294° |
| 2026-04-27 20:26 | 46.94773 | 19.53473 | 34197 ft | 396 kts | 294° |
| 2026-04-27 20:27 | 46.96750 | 19.45940 | 34194 ft | 396 kts | 294° |
| 2026-04-27 20:27 | 46.98719 | 19.38409 | 34188 ft | 396 kts | 294° |
| 2026-04-27 20:28 | 47.00685 | 19.30863 | 34185 ft | 395 kts | 294° |
| 2026-04-27 20:28 | 47.02300 | 19.24640 | 34178 ft | 395 kts | 293° |
| 2026-04-27 20:29 | 47.04566 | 19.15874 | 34183 ft | 395 kts | 293° |
| 2026-04-27 20:29 | 47.06514 | 19.08322 | 34180 ft | 395 kts | 293° |
| 2026-04-27 20:30 | 47.08454 | 19.00766 | 34179 ft | 395 kts | 293° |
| 2026-04-27 20:30 | 47.10374 | 18.93273 | 34185 ft | 395 kts | 293° |
| 2026-04-27 20:31 | 47.12303 | 18.85716 | 34181 ft | 395 kts | 293° |
| 2026-04-27 20:31 | 47.14231 | 18.78147 | 34185 ft | 395 kts | 293° |
| 2026-04-27 20:32 | 47.16027 | 18.70564 | 34190 ft | 396 kts | 290° |
| 2026-04-27 20:32 | 47.17699 | 18.62832 | 34189 ft | 396 kts | 290° |
| 2026-04-27 20:33 | 47.19377 | 18.55109 | 34184 ft | 396 kts | 290° |
| 2026-04-27 20:33 | 47.21035 | 18.47427 | 34185 ft | 396 kts | 290° |
| 2026-04-27 20:34 | 47.22701 | 18.39691 | 34184 ft | 396 kts | 290° |
| 2026-04-27 20:34 | 47.24350 | 18.32006 | 34182 ft | 396 kts | 290° |
| 2026-04-27 20:35 | 47.26020 | 18.24283 | 34191 ft | 396 kts | 290° |
| 2026-04-27 20:35 | 47.27678 | 18.16538 | 34192 ft | 396 kts | 289° |
| 2026-04-27 20:36 | 47.29329 | 18.08786 | 34192 ft | 396 kts | 289° |
| 2026-04-27 20:36 | 47.30975 | 18.01025 | 34189 ft | 396 kts | 289° |
| 2026-04-27 20:37 | 47.32598 | 17.93306 | 34190 ft | 396 kts | 289° |
| 2026-04-27 20:37 | 47.34229 | 17.85546 | 34192 ft | 396 kts | 289° |
| 2026-04-27 20:38 | 47.35852 | 17.77763 | 34200 ft | 396 kts | 289° |
| 2026-04-27 20:38 | 47.37453 | 17.70045 | 34200 ft | 396 kts | 289° |
| 2026-04-27 20:39 | 47.39072 | 17.62267 | 34202 ft | 395 kts | 289° |
| 2026-04-27 20:39 | 47.40670 | 17.54505 | 34199 ft | 395 kts | 289° |
| 2026-04-27 20:40 | 47.42265 | 17.46789 | 34198 ft | 394 kts | 289° |
| 2026-04-27 20:40 | 47.43863 | 17.39037 | 34199 ft | 394 kts | 289° |
| 2026-04-27 20:41 | 47.45433 | 17.31329 | 34197 ft | 393 kts | 288° |
| 2026-04-27 20:41 | 47.47018 | 17.23596 | 34194 ft | 393 kts | 289° |
| 2026-04-27 20:42 | 47.48593 | 17.15875 | 34196 ft | 393 kts | 288° |
| 2026-04-27 20:42 | 47.50164 | 17.08125 | 34192 ft | 392 kts | 288° |
| 2026-04-27 20:43 | 47.51724 | 17.00388 | 34189 ft | 392 kts | 288° |
| 2026-04-27 20:43 | 47.53269 | 16.92689 | 34189 ft | 392 kts | 288° |
| 2026-04-27 20:44 | 47.54815 | 16.84954 | 34187 ft | 392 kts | 288° |
| 2026-04-27 20:44 | 47.56385 | 16.77224 | 34182 ft | 391 kts | 291° |
| 2026-04-27 20:45 | 47.58947 | 16.70196 | 34187 ft | 390 kts | 303° |
| 2026-04-27 20:45 | 47.61950 | 16.63480 | 34185 ft | 391 kts | 303° |
| 2026-04-27 20:46 | 47.64937 | 16.56723 | 34186 ft | 391 kts | 302° |
| 2026-04-27 20:46 | 47.67893 | 16.49979 | 34184 ft | 391 kts | 302° |
| 2026-04-27 20:47 | 47.70861 | 16.43180 | 34199 ft | 392 kts | 302° |
| 2026-04-27 20:47 | 47.73808 | 16.36403 | 34185 ft | 392 kts | 302° |
| 2026-04-27 20:48 | 47.76295 | 16.30704 | 34182 ft | 392 kts | 302° |
| 2026-04-27 20:48 | 47.79735 | 16.22780 | 34200 ft | 392 kts | 302° |
| 2026-04-27 20:49 | 47.82700 | 16.15946 | 34185 ft | 393 kts | 302° |
| 2026-04-27 20:49 | 47.85660 | 16.09101 | 34194 ft | 393 kts | 302° |
| 2026-04-27 20:50 | 47.88598 | 16.02280 | 34191 ft | 393 kts | 302° |
| 2026-04-27 20:50 | 47.91565 | 15.95408 | 34192 ft | 394 kts | 302° |
| 2026-04-27 20:51 | 47.94507 | 15.88570 | 34193 ft | 394 kts | 302° |
| 2026-04-27 20:51 | 47.97462 | 15.81676 | 34190 ft | 394 kts | 301° |
| 2026-04-27 20:52 | 48.00412 | 15.74762 | 34190 ft | 394 kts | 301° |
| 2026-04-27 20:52 | 48.03353 | 15.67844 | 34196 ft | 394 kts | 301° |
| 2026-04-27 20:53 | 48.05719 | 15.60531 | 34211 ft | 393 kts | 291° |
| 2026-04-27 20:53 | 48.07696 | 15.52907 | 34203 ft | 393 kts | 291° |
| 2026-04-27 20:54 | 48.10665 | 15.41514 | 34182 ft | 392 kts | 291° |
| 2026-04-27 20:55 | 48.12649 | 15.33902 | 34188 ft | 392 kts | 291° |
| 2026-04-27 20:55 | 48.14631 | 15.26275 | 34178 ft | 392 kts | 291° |
| 2026-04-27 20:56 | 48.16592 | 15.18704 | 34187 ft | 391 kts | 291° |
| 2026-04-27 20:56 | 48.18560 | 15.11079 | 34191 ft | 391 kts | 291° |
| 2026-04-27 20:57 | 48.20516 | 15.03468 | 34192 ft | 391 kts | 291° |
| 2026-04-27 20:57 | 48.22454 | 14.95903 | 34170 ft | 391 kts | 291° |
| 2026-04-27 20:58 | 48.24393 | 14.88300 | 34182 ft | 389 kts | 291° |
| 2026-04-27 20:58 | 48.26002 | 14.81987 | 34187 ft | 389 kts | 291° |
| 2026-04-27 20:59 | 48.27935 | 14.74384 | 34174 ft | 389 kts | 291° |
| 2026-04-27 20:59 | 48.29858 | 14.66783 | 34186 ft | 389 kts | 291° |
| 2026-04-27 21:00 | 48.31767 | 14.59211 | 34193 ft | 388 kts | 291° |
| 2026-04-27 21:00 | 48.33675 | 14.51622 | 34173 ft | 388 kts | 291° |
| 2026-04-27 21:01 | 48.35566 | 14.44077 | 34170 ft | 387 kts | 291° |
| 2026-04-27 21:01 | 48.37459 | 14.36499 | 34169 ft | 387 kts | 291° |
| 2026-04-27 21:02 | 48.39348 | 14.28911 | 34170 ft | 387 kts | 291° |
| 2026-04-27 21:02 | 48.41230 | 14.21327 | 34173 ft | 386 kts | 291° |
| 2026-04-27 21:03 | 48.43103 | 14.13744 | 34167 ft | 386 kts | 291° |
| 2026-04-27 21:03 | 48.44958 | 14.06214 | 34168 ft | 385 kts | 291° |
| 2026-04-27 21:04 | 48.46819 | 13.98635 | 34180 ft | 385 kts | 291° |
| 2026-04-27 21:04 | 48.48672 | 13.91065 | 34174 ft | 384 kts | 291° |
| 2026-04-27 21:05 | 48.50510 | 13.83529 | 34167 ft | 384 kts | 290° |
| 2026-04-27 21:05 | 48.52352 | 13.75950 | 34173 ft | 384 kts | 290° |
| 2026-04-27 21:06 | 48.54186 | 13.68375 | 34159 ft | 384 kts | 290° |
| 2026-04-27 21:06 | 48.56003 | 13.60841 | 34165 ft | 384 kts | 290° |
| 2026-04-27 21:07 | 48.57829 | 13.53252 | 34161 ft | 383 kts | 290° |
| 2026-04-27 21:07 | 48.59643 | 13.45718 | 34172 ft | 383 kts | 290° |
| 2026-04-27 21:08 | 48.61470 | 13.38149 | 34163 ft | 383 kts | 290° |
| 2026-04-27 21:08 | 48.63295 | 13.30562 | 34166 ft | 383 kts | 290° |
| 2026-04-27 21:09 | 48.65100 | 13.23016 | 34151 ft | 383 kts | 290° |
| 2026-04-27 21:09 | 48.66913 | 13.15423 | 34159 ft | 383 kts | 290° |
| 2026-04-27 21:10 | 48.68719 | 13.07834 | 34156 ft | 383 kts | 290° |
| 2026-04-27 21:10 | 48.70511 | 13.00254 | 34167 ft | 382 kts | 290° |
| 2026-04-27 21:11 | 48.72285 | 12.92714 | 34164 ft | 382 kts | 289° |
| 2026-04-27 21:11 | 48.74067 | 12.85128 | 34161 ft | 381 kts | 289° |
| 2026-04-27 21:12 | 48.75830 | 12.77594 | 34174 ft | 381 kts | 289° |
| 2026-04-27 21:12 | 48.77594 | 12.70005 | 34178 ft | 381 kts | 289° |
| 2026-04-27 21:13 | 48.79355 | 12.62438 | 34164 ft | 381 kts | 289° |
| 2026-04-27 21:13 | 48.81110 | 12.54848 | 34162 ft | 380 kts | 289° |
| 2026-04-27 21:14 | 48.82843 | 12.47310 | 34154 ft | 380 kts | 289° |
| 2026-04-27 21:14 | 48.84580 | 12.39708 | 34163 ft | 380 kts | 289° |
| 2026-04-27 21:15 | 48.86297 | 12.32154 | 34162 ft | 380 kts | 288° |
| 2026-04-27 21:15 | 48.88028 | 12.24562 | 34162 ft | 380 kts | 289° |
| 2026-04-27 21:16 | 48.90138 | 12.17231 | 34169 ft | 380 kts | 295° |
| 2026-04-27 21:16 | 48.92467 | 12.10007 | 34181 ft | 380 kts | 294° |
| 2026-04-27 21:17 | 48.94773 | 12.02756 | 34169 ft | 380 kts | 294° |
| 2026-04-27 21:17 | 48.97064 | 11.95522 | 34166 ft | 380 kts | 294° |
| 2026-04-27 21:18 | 48.99356 | 11.88263 | 34172 ft | 380 kts | 294° |
| 2026-04-27 21:18 | 49.01625 | 11.81041 | 34173 ft | 380 kts | 294° |
| 2026-04-27 21:19 | 49.03906 | 11.73778 | 34172 ft | 380 kts | 294° |
| 2026-04-27 21:19 | 49.06187 | 11.66491 | 34171 ft | 380 kts | 294° |
| 2026-04-27 21:20 | 49.09587 | 11.55578 | 34171 ft | 380 kts | 293° |
| 2026-04-27 21:20 | 49.11839 | 11.48274 | 34173 ft | 380 kts | 293° |
| 2026-04-27 21:21 | 49.14086 | 11.41006 | 34168 ft | 380 kts | 293° |
| 2026-04-27 21:21 | 49.16357 | 11.33710 | 34171 ft | 380 kts | 293° |
| 2026-04-27 21:22 | 49.18596 | 11.26446 | 34171 ft | 380 kts | 293° |
| 2026-04-27 21:22 | 49.20843 | 11.19122 | 34174 ft | 379 kts | 293° |
| 2026-04-27 21:23 | 49.23082 | 11.11804 | 34169 ft | 379 kts | 293° |
| 2026-04-27 21:23 | 49.25302 | 11.04532 | 34175 ft | 379 kts | 292° |
| 2026-04-27 21:24 | 49.27534 | 10.97200 | 34180 ft | 379 kts | 292° |
| 2026-04-27 21:24 | 49.29753 | 10.89885 | 34186 ft | 378 kts | 292° |
| 2026-04-27 21:25 | 49.31968 | 10.82558 | 34191 ft | 378 kts | 292° |
| 2026-04-27 21:25 | 49.34194 | 10.75269 | 34189 ft | 379 kts | 294° |
| 2026-04-27 21:26 | 49.36830 | 10.68209 | 34197 ft | 381 kts | 297° |
| 2026-04-27 21:26 | 49.39512 | 10.61196 | 34195 ft | 381 kts | 297° |
| 2026-04-27 21:27 | 49.42180 | 10.54138 | 34187 ft | 381 kts | 296° |
| 2026-04-27 21:27 | 49.44821 | 10.47123 | 34190 ft | 381 kts | 296° |
| 2026-04-27 21:28 | 49.47474 | 10.40054 | 34183 ft | 381 kts | 296° |
| 2026-04-27 21:28 | 49.50105 | 10.33029 | 34180 ft | 381 kts | 296° |
| 2026-04-27 21:29 | 49.52749 | 10.25948 | 34176 ft | 381 kts | 296° |
| 2026-04-27 21:29 | 49.55393 | 10.18850 | 34177 ft | 381 kts | 296° |
| 2026-04-27 21:30 | 49.58016 | 10.11788 | 34176 ft | 382 kts | 296° |
| 2026-04-27 21:30 | 49.60646 | 10.04689 | 34173 ft | 382 kts | 296° |
| 2026-04-27 21:31 | 49.63282 | 9.97557 | 34168 ft | 382 kts | 296° |
| 2026-04-27 21:31 | 49.65910 | 9.90425 | 34170 ft | 382 kts | 296° |
| 2026-04-27 21:32 | 49.68532 | 9.83286 | 34173 ft | 382 kts | 296° |
| 2026-04-27 21:32 | 49.71135 | 9.76182 | 34164 ft | 382 kts | 295° |
| 2026-04-27 21:33 | 49.73758 | 9.69003 | 34167 ft | 383 kts | 295° |
| 2026-04-27 21:33 | 49.76373 | 9.61826 | 34165 ft | 383 kts | 295° |
| 2026-04-27 21:34 | 49.78969 | 9.54673 | 34163 ft | 383 kts | 295° |
| 2026-04-27 21:34 | 49.81576 | 9.47478 | 34159 ft | 382 kts | 295° |
| 2026-04-27 21:35 | 49.84185 | 9.40257 | 34161 ft | 383 kts | 295° |
| 2026-04-27 21:35 | 49.86768 | 9.33090 | 34166 ft | 383 kts | 295° |
| 2026-04-27 21:36 | 49.89369 | 9.25855 | 34159 ft | 384 kts | 295° |
| 2026-04-27 21:36 | 49.91961 | 9.18587 | 34159 ft | 384 kts | 295° |
| 2026-04-27 21:37 | 49.94554 | 9.11318 | 34159 ft | 384 kts | 295° |
| 2026-04-27 21:37 | 49.97138 | 9.04106 | 34164 ft | 384 kts | 295° |
| 2026-04-27 21:38 | 49.99727 | 8.96820 | 34165 ft | 384 kts | 295° |
| 2026-04-27 21:38 | 50.02296 | 8.89571 | 34158 ft | 385 kts | 295° |
| 2026-04-27 21:39 | 50.04749 | 8.82185 | 34163 ft | 382 kts | 288° |
| 2026-04-27 21:39 | 50.05683 | 8.74133 | 34179 ft | 378 kts | 270° |
| 2026-04-27 21:40 | 50.05563 | 8.65984 | 34164 ft | 379 kts | 268° |
| 2026-04-27 21:40 | 50.05440 | 8.57743 | 34174 ft | 380 kts | 269° |
| 2026-04-27 21:41 | 50.05336 | 8.49520 | 34161 ft | 380 kts | 268° |
| 2026-04-27 21:41 | 50.05234 | 8.41332 | 34222 ft | 380 kts | 268° |
| 2026-04-27 21:42 | 50.05111 | 8.33089 | 34234 ft | 380 kts | 268° |
| 2026-04-27 21:42 | 50.04990 | 8.24857 | 34239 ft | 381 kts | 268° |
| 2026-04-27 21:43 | 50.04885 | 8.16651 | 34241 ft | 381 kts | 268° |
| 2026-04-27 21:43 | 50.04759 | 8.08396 | 34226 ft | 381 kts | 268° |
| 2026-04-27 21:44 | 50.04646 | 8.00175 | 34211 ft | 381 kts | 268° |
| 2026-04-27 21:44 | 50.04548 | 7.93299 | 34189 ft | 381 kts | 268° |
| 2026-04-27 21:45 | 50.04398 | 7.83699 | 34166 ft | 381 kts | 268° |
| 2026-04-27 21:45 | 50.04289 | 7.76817 | 34166 ft | 382 kts | 268° |
| 2026-04-27 21:46 | 50.04152 | 7.68546 | 34163 ft | 382 kts | 268° |
| 2026-04-27 21:46 | 50.04008 | 7.60265 | 34163 ft | 382 kts | 268° |
| 2026-04-27 21:47 | 50.03856 | 7.51984 | 34168 ft | 383 kts | 268° |
| 2026-04-27 21:47 | 50.03698 | 7.43685 | 34173 ft | 383 kts | 268° |
| 2026-04-27 21:48 | 50.03536 | 7.35439 | 34169 ft | 383 kts | 267° |
| 2026-04-27 21:48 | 50.03366 | 7.27130 | 34178 ft | 383 kts | 267° |
| 2026-04-27 21:49 | 50.03192 | 7.18837 | 34174 ft | 384 kts | 267° |
| 2026-04-27 21:49 | 50.03011 | 7.10575 | 34176 ft | 384 kts | 267° |
| 2026-04-27 21:50 | 50.02819 | 7.02267 | 34164 ft | 384 kts | 267° |
| 2026-04-27 21:50 | 50.02625 | 6.93960 | 34162 ft | 384 kts | 267° |
| 2026-04-27 21:51 | 50.02426 | 6.85689 | 34146 ft | 384 kts | 267° |
| 2026-04-27 21:51 | 50.02220 | 6.77381 | 34147 ft | 384 kts | 266° |
| 2026-04-27 21:52 | 50.01568 | 6.69219 | 34145 ft | 383 kts | 254° |
| 2026-04-27 21:52 | 49.99665 | 6.61462 | 34147 ft | 383 kts | 249° |
| 2026-04-27 21:53 | 49.97630 | 6.53788 | 34142 ft | 384 kts | 248° |
| 2026-04-27 21:53 | 49.95508 | 6.46217 | 34139 ft | 385 kts | 248° |
| 2026-04-27 21:54 | 49.93362 | 6.38570 | 34134 ft | 385 kts | 248° |
| 2026-04-27 21:54 | 49.91216 | 6.30951 | 34144 ft | 385 kts | 248° |
| 2026-04-27 21:55 | 49.89076 | 6.23377 | 34141 ft | 385 kts | 248° |
| 2026-04-27 21:55 | 49.86918 | 6.15766 | 34134 ft | 385 kts | 248° |
| 2026-04-27 21:56 | 49.82613 | 6.05243 | 34143 ft | 388 kts | 237° |
| 2026-04-27 21:57 | 49.79478 | 5.98484 | 34128 ft | 380 kts | 237° |
| 2026-04-27 21:57 | 49.76378 | 5.91767 | 34130 ft | 387 kts | 237° |
| 2026-04-27 21:58 | 49.73620 | 5.84697 | 34134 ft | 385 kts | 249° |
| 2026-04-27 21:58 | 49.71803 | 5.76927 | 34131 ft | 384 kts | 252° |
| 2026-04-27 21:59 | 49.70026 | 5.69179 | 33852 ft | 375 kts | 251° |
| 2026-04-27 21:59 | 49.69157 | 5.65439 | 33528 ft | 364 kts | 251° |
| 2026-04-27 21:59 | 49.68308 | 5.61791 | 33084 ft | 359 kts | 251° |
| 2026-04-27 21:59 | 49.67477 | 5.58230 | 32610 ft | 355 kts | 251° |
| 2026-04-27 22:00 | 49.66641 | 5.54660 | 32112 ft | 351 kts | 251° |
| 2026-04-27 22:00 | 49.65813 | 5.51127 | 31612 ft | 348 kts | 251° |
| 2026-04-27 22:00 | 49.64989 | 5.47623 | 31117 ft | 345 kts | 250° |
| 2026-04-27 22:00 | 49.64169 | 5.44151 | 30651 ft | 342 kts | 250° |
| 2026-04-27 22:01 | 49.63361 | 5.40751 | 30212 ft | 339 kts | 250° |
| 2026-04-27 22:01 | 49.62555 | 5.37341 | 29671 ft | 337 kts | 251° |
| 2026-04-27 22:01 | 49.61809 | 5.33930 | 29174 ft | 334 kts | 251° |
| 2026-04-27 22:01 | 49.61088 | 5.30542 | 28704 ft | 330 kts | 252° |
| 2026-04-27 22:02 | 49.60373 | 5.27175 | 28248 ft | 329 kts | 251° |
| 2026-04-27 22:02 | 49.59660 | 5.23826 | 27787 ft | 326 kts | 252° |
| 2026-04-27 22:02 | 49.59167 | 5.20439 | 27341 ft | 324 kts | 263° |
| 2026-04-27 22:02 | 49.59109 | 5.16981 | 26894 ft | 322 kts | 269° |
| 2026-04-27 22:03 | 49.59158 | 5.13549 | 26445 ft | 320 kts | 269° |
| 2026-04-27 22:03 | 49.59208 | 5.10164 | 26015 ft | 318 kts | 269° |
| 2026-04-27 22:03 | 49.59247 | 5.06766 | 25599 ft | 316 kts | 269° |
| 2026-04-27 22:03 | 49.59275 | 5.03401 | 25186 ft | 313 kts | 269° |
| 2026-04-27 22:04 | 49.59307 | 5.00052 | 24759 ft | 312 kts | 269° |
| 2026-04-27 22:04 | 49.59333 | 4.96711 | 24319 ft | 311 kts | 269° |
| 2026-04-27 22:04 | 49.59360 | 4.93376 | 23896 ft | 311 kts | 269° |
| 2026-04-27 22:04 | 49.59385 | 4.90046 | 23437 ft | 310 kts | 269° |
| 2026-04-27 22:05 | 49.59410 | 4.86734 | 22956 ft | 307 kts | 269° |
| 2026-04-27 22:05 | 49.59433 | 4.83451 | 22505 ft | 305 kts | 269° |
| 2026-04-27 22:05 | 49.59450 | 4.80167 | 22088 ft | 313 kts | 269° |
| 2026-04-27 22:05 | 49.59459 | 4.76826 | 21718 ft | 314 kts | 269° |
| 2026-04-27 22:06 | 49.59468 | 4.73471 | 21280 ft | 311 kts | 269° |
| 2026-04-27 22:06 | 49.59480 | 4.70137 | 20835 ft | 309 kts | 269° |
| 2026-04-27 22:06 | 49.59494 | 4.66845 | 20418 ft | 306 kts | 269° |
| 2026-04-27 22:06 | 49.59509 | 4.63579 | 20002 ft | 302 kts | 269° |
| 2026-04-27 22:07 | 49.59523 | 4.60387 | 19606 ft | 300 kts | 269° |
| 2026-04-27 22:07 | 49.59536 | 4.57177 | 19203 ft | 298 kts | 269° |
| 2026-04-27 22:07 | 49.59552 | 4.53997 | 18813 ft | 295 kts | 269° |
| 2026-04-27 22:07 | 49.59572 | 4.50841 | 18426 ft | 293 kts | 269° |
| 2026-04-27 22:08 | 49.59591 | 4.47711 | 18010 ft | 290 kts | 269° |
| 2026-04-27 22:08 | 49.59604 | 4.44653 | 17609 ft | 287 kts | 269° |
| 2026-04-27 22:08 | 49.59611 | 4.41584 | 17226 ft | 284 kts | 269° |
| 2026-04-27 22:08 | 49.59612 | 4.38545 | 16856 ft | 282 kts | 269° |
| 2026-04-27 22:09 | 49.59615 | 4.35540 | 16513 ft | 279 kts | 269° |
| 2026-04-27 22:09 | 49.59620 | 4.32547 | 16180 ft | 277 kts | 270° |
| 2026-04-27 22:09 | 49.59632 | 4.29577 | 15852 ft | 276 kts | 270° |
| 2026-04-27 22:09 | 49.59641 | 4.26659 | 15526 ft | 274 kts | 270° |
| 2026-04-27 22:10 | 49.59647 | 4.23728 | 15198 ft | 273 kts | 270° |
| 2026-04-27 22:10 | 49.59650 | 4.21786 | 14966 ft | 273 kts | 270° |
| 2026-04-27 22:10 | 49.59653 | 4.17852 | 14492 ft | 273 kts | 270° |
| 2026-04-27 22:10 | 49.59656 | 4.14924 | 14143 ft | 273 kts | 270° |
| 2026-04-27 22:11 | 49.59662 | 4.12040 | 13798 ft | 272 kts | 270° |
| 2026-04-27 22:11 | 49.59659 | 4.09124 | 13429 ft | 272 kts | 270° |
| 2026-04-27 22:11 | 49.59653 | 4.06217 | 13074 ft | 270 kts | 270° |
| 2026-04-27 22:11 | 49.59643 | 4.03301 | 12785 ft | 283 kts | 270° |
| 2026-04-27 22:12 | 49.59634 | 4.00228 | 12521 ft | 287 kts | 270° |
| 2026-04-27 22:12 | 49.59628 | 3.97162 | 12265 ft | 286 kts | 270° |
| 2026-04-27 22:12 | 49.59633 | 3.94097 | 12009 ft | 286 kts | 270° |
| 2026-04-27 22:12 | 49.59636 | 3.91041 | 11754 ft | 285 kts | 270° |
| 2026-04-27 22:13 | 49.59634 | 3.87979 | 11510 ft | 284 kts | 270° |
| 2026-04-27 22:13 | 49.59626 | 3.84930 | 11270 ft | 284 kts | 270° |
| 2026-04-27 22:13 | 49.59568 | 3.81881 | 11028 ft | 284 kts | 268° |
| 2026-04-27 22:13 | 49.59485 | 3.78880 | 10778 ft | 283 kts | 268° |
| 2026-04-27 22:14 | 49.59406 | 3.75838 | 10543 ft | 283 kts | 268° |
| 2026-04-27 22:14 | 49.59328 | 3.72809 | 10311 ft | 282 kts | 268° |
| 2026-04-27 22:14 | 49.59246 | 3.69787 | 10155 ft | 282 kts | 268° |
| 2026-04-27 22:14 | 49.59163 | 3.66761 | 10012 ft | 282 kts | 268° |
| 2026-04-27 22:15 | 49.59070 | 3.63735 | 9889 ft | 282 kts | 267° |
| 2026-04-27 22:15 | 49.58975 | 3.60755 | 9758 ft | 281 kts | 268° |
| 2026-04-27 22:15 | 49.58882 | 3.57741 | 9625 ft | 281 kts | 268° |
| 2026-04-27 22:15 | 49.58792 | 3.54735 | 9490 ft | 280 kts | 268° |
| 2026-04-27 22:16 | 49.58710 | 3.51731 | 9358 ft | 280 kts | 268° |
| 2026-04-27 22:16 | 49.58471 | 3.48758 | 9207 ft | 280 kts | 256° |
| 2026-04-27 22:16 | 49.57910 | 3.45886 | 8990 ft | 280 kts | 252° |
| 2026-04-27 22:16 | 49.57304 | 3.43080 | 8742 ft | 279 kts | 252° |
| 2026-04-27 22:17 | 49.56684 | 3.40239 | 8487 ft | 278 kts | 252° |
| 2026-04-27 22:17 | 49.56067 | 3.37416 | 8225 ft | 278 kts | 252° |
| 2026-04-27 22:17 | 49.55451 | 3.34598 | 7977 ft | 277 kts | 252° |
| 2026-04-27 22:17 | 49.54838 | 3.31790 | 7788 ft | 277 kts | 252° |
| 2026-04-27 22:18 | 49.54230 | 3.29007 | 7646 ft | 276 kts | 252° |
| 2026-04-27 22:18 | 49.53616 | 3.26200 | 7516 ft | 276 kts | 252° |
| 2026-04-27 22:18 | 49.53000 | 3.23393 | 7391 ft | 276 kts | 252° |
| 2026-04-27 22:18 | 49.52390 | 3.20627 | 7275 ft | 275 kts | 252° |
| 2026-04-27 22:19 | 49.51775 | 3.17838 | 7149 ft | 275 kts | 252° |
| 2026-04-27 22:19 | 49.51159 | 3.15042 | 7024 ft | 275 kts | 252° |
| 2026-04-27 22:19 | 49.50544 | 3.12256 | 6904 ft | 275 kts | 252° |
| 2026-04-27 22:19 | 49.49926 | 3.09461 | 6780 ft | 275 kts | 252° |
| 2026-04-27 22:20 | 49.49307 | 3.06670 | 6664 ft | 275 kts | 252° |
| 2026-04-27 22:20 | 49.48692 | 3.03893 | 6532 ft | 274 kts | 252° |
| 2026-04-27 22:20 | 49.48076 | 3.01118 | 6409 ft | 274 kts | 252° |
| 2026-04-27 22:20 | 49.47468 | 2.98388 | 6281 ft | 274 kts | 252° |
| 2026-04-27 22:21 | 49.46851 | 2.95624 | 6147 ft | 273 kts | 252° |
| 2026-04-27 22:21 | 49.46236 | 2.92859 | 6021 ft | 273 kts | 252° |
| 2026-04-27 22:21 | 49.45623 | 2.90101 | 5893 ft | 272 kts | 252° |
| 2026-04-27 22:21 | 49.45010 | 2.87345 | 5763 ft | 272 kts | 252° |
| 2026-04-27 22:22 | 49.44405 | 2.84626 | 5632 ft | 271 kts | 252° |
| 2026-04-27 22:22 | 49.43794 | 2.81878 | 5509 ft | 271 kts | 252° |
| 2026-04-27 22:22 | 49.43183 | 2.79137 | 5381 ft | 271 kts | 252° |
| 2026-04-27 22:22 | 49.42574 | 2.76409 | 5252 ft | 270 kts | 252° |
| 2026-04-27 22:23 | 49.41963 | 2.73676 | 5129 ft | 270 kts | 252° |
| 2026-04-27 22:23 | 49.41350 | 2.70943 | 5002 ft | 269 kts | 252° |
| 2026-04-27 22:23 | 49.40742 | 2.68220 | 4884 ft | 269 kts | 252° |
| 2026-04-27 22:23 | 49.40134 | 2.65496 | 4745 ft | 269 kts | 252° |
| 2026-04-27 22:24 | 49.39533 | 2.62810 | 4615 ft | 269 kts | 252° |
| 2026-04-27 22:24 | 49.38925 | 2.60087 | 4421 ft | 269 kts | 252° |
| 2026-04-27 22:24 | 49.38321 | 2.57374 | 4203 ft | 268 kts | 252° |
| 2026-04-27 22:24 | 49.37718 | 2.54659 | 3977 ft | 268 kts | 251° |
| 2026-04-27 22:25 | 49.37121 | 2.51957 | 3753 ft | 267 kts | 252° |
| 2026-04-27 22:25 | 49.36594 | 2.49228 | 3508 ft | 266 kts | 262° |
| 2026-04-27 22:25 | 49.36506 | 2.46397 | 3272 ft | 266 kts | 270° |
| 2026-04-27 22:25 | 49.36531 | 2.43570 | 3023 ft | 265 kts | 271° |
| 2026-04-27 22:26 | 49.36562 | 2.40785 | 2773 ft | 261 kts | 272° |
| 2026-04-27 22:26 | 49.36588 | 2.38044 | 2516 ft | 253 kts | 272° |
| 2026-04-27 22:26 | 49.36608 | 2.35380 | 2252 ft | 246 kts | 272° |
| 2026-04-27 22:26 | 49.36682 | 2.32793 | 1978 ft | 239 kts | 281° |
| 2026-04-27 22:27 | 49.37150 | 2.30434 | 1762 ft | 224 kts | 298° |
| 2026-04-27 22:27 | 49.37913 | 2.28478 | 1716 ft | 204 kts | 310° |
| 2026-04-27 22:27 | 49.38737 | 2.26705 | 1725 ft | 204 kts | 307° |
| 2026-04-27 22:27 | 49.39525 | 2.24909 | 1740 ft | 195 kts | 307° |
| 2026-04-27 22:28 | 49.40214 | 2.23326 | 1787 ft | 164 kts | 307° |
| 2026-04-27 22:28 | 49.40819 | 2.21938 | 1694 ft | 152 kts | 308° |
| 2026-04-27 22:28 | 49.41396 | 2.20607 | 1502 ft | 151 kts | 307° |
| 2026-04-27 22:28 | 49.41967 | 2.19263 | 1264 ft | 149 kts | 306° |
| 2026-04-27 22:29 | 49.42538 | 2.17946 | 1094 ft | 146 kts | 308° |
| 2026-04-27 22:29 | 49.43114 | 2.16673 | 892 ft | 144 kts | 306° |
| 2026-04-27 22:29 | 49.43655 | 2.15395 | 716 ft | 144 kts | 305° |
| 2026-04-27 22:29 | 49.44207 | 2.14103 | 499 ft | 142 kts | 306° |
| 2026-04-27 22:30 | 49.44748 | 2.12871 | 322 ft | 139 kts | 306° |
| 2026-04-27 22:30 | 49.45172 | 2.11903 | 346 ft | 67 kts | 304° |
| 2026-04-27 22:30 | 49.45363 | 2.11460 | 351 ft | 34 kts | 302° |
| 2026-04-27 22:30 | 49.45442 | 2.11311 | 347 ft | 10 kts | 8° |
| 2026-04-27 22:31 | 49.45508 | 2.11369 | 352 ft | 12 kts | 41° |
| 2026-04-27 22:31 | 49.45553 | 2.11434 | 348 ft | 14 kts | 41° |
| 2026-04-27 22:31 | 49.45657 | 2.11574 | 361 ft | 8 kts | 40° |
| 2026-04-27 22:31 | 49.45712 | 2.11612 | 352 ft | 10 kts | 353° |
| 2026-04-27 22:32 | 49.45751 | 2.11577 | 352 ft | 9 kts | 314° |
| 2026-04-27 22:32 | 49.45794 | 2.11492 | 353 ft | 11 kts | 298° |
| 2026-04-27 22:32 | 49.45831 | 2.11415 | 356 ft | 7 kts | 311° |
| 2026-04-27 22:32 | 49.45850 | 2.11382 | 360 ft | 3 kts | 310° |
| 2026-04-27 22:33 | 49.45853 | 2.11376 | 360 ft | 0 kts | 310° |
| 2026-04-27 22:33 | 49.45854 | 2.11376 | 360 ft | 0 kts | 310° |
| 2026-04-27 22:36 | 49.45853 | 2.11376 | 360 ft | 0 kts | 310° |
| 2026-04-27 22:41 | 49.45853 | 2.11377 | 352 ft | 0 kts | 310° |